createdAt,value
2018-12-05T00:00:13.502Z,1042.62
2018-12-05T00:01:13.487Z,1042.62
2018-12-05T00:02:13.471Z,1042.69
2018-12-05T00:03:13.455Z,1042.67
2018-12-05T00:04:13.439Z,1042.68
2018-12-05T00:05:13.424Z,1042.73
2018-12-05T00:06:13.409Z,1042.79
2018-12-05T00:07:13.392Z,1042.74
2018-12-05T00:08:13.376Z,1042.78
2018-12-05T00:09:13.363Z,1042.83
2018-12-05T00:10:13.344Z,1042.8
2018-12-05T00:11:13.328Z,1042.81
2018-12-05T00:12:13.313Z,1042.85
2018-12-05T00:13:13.298Z,1042.84
2018-12-05T00:14:13.281Z,1042.85
2018-12-05T00:15:13.266Z,1042.86
2018-12-05T00:16:13.252Z,1042.86
2018-12-05T00:17:13.235Z,1042.94
2018-12-05T00:18:13.218Z,1042.96
2018-12-05T00:19:13.203Z,1042.95
2018-12-05T00:20:13.187Z,1042.97
2018-12-05T00:21:13.170Z,1042.95
2018-12-05T00:22:13.154Z,1042.95
2018-12-05T00:23:13.138Z,1042.91
2018-12-05T00:24:13.125Z,1042.96
2018-12-05T00:25:13.107Z,1042.95
2018-12-05T00:26:13.091Z,1042.96
2018-12-05T00:27:13.076Z,1042.94
2018-12-05T00:28:13.060Z,1042.97
2018-12-05T00:29:13.043Z,1043
2018-12-05T00:30:13.028Z,1042.99
2018-12-05T00:31:13.012Z,1043.03
2018-12-05T00:32:12.996Z,1043.01
2018-12-05T00:33:12.980Z,1043.04
2018-12-05T00:34:12.964Z,1043.05
2018-12-05T00:35:12.948Z,1043.05
2018-12-05T00:36:12.932Z,1043.08
2018-12-05T00:37:12.916Z,1043.12
2018-12-05T00:38:12.901Z,1043.16
2018-12-05T00:39:12.887Z,1043.15
2018-12-05T00:40:12.869Z,1043.14
2018-12-05T00:41:12.853Z,1043.18
2018-12-05T00:42:12.838Z,1043.2
2018-12-05T00:43:12.820Z,1043.19
2018-12-05T00:44:12.807Z,1043.13
2018-12-05T00:45:12.790Z,1043.18
2018-12-05T00:46:12.774Z,1043.2
2018-12-05T00:47:12.758Z,1043.21
2018-12-05T00:48:12.742Z,1043.21
2018-12-05T00:49:12.726Z,1043.19
2018-12-05T00:50:12.710Z,1043.19
2018-12-05T00:51:12.693Z,1043.21
2018-12-05T00:52:12.678Z,1043.19
2018-12-05T00:53:12.663Z,1043.21
2018-12-05T00:54:12.646Z,1043.14
2018-12-05T00:55:12.630Z,1043.21
2018-12-05T00:56:12.614Z,1043.21
2018-12-05T00:57:12.599Z,1043.2
2018-12-05T00:58:12.585Z,1043.22
2018-12-05T00:59:12.566Z,1043.24
2018-12-05T01:00:12.552Z,1043.24
2018-12-05T01:01:12.535Z,1043.24
2018-12-05T01:02:12.518Z,1043.25
2018-12-05T01:03:12.503Z,1043.26
2018-12-05T01:04:12.487Z,1043.28
2018-12-05T01:05:12.470Z,1043.29
2018-12-05T01:06:12.457Z,1043.31
2018-12-05T01:07:12.439Z,1043.3
2018-12-05T01:08:12.428Z,1043.35
2018-12-05T01:09:12.406Z,1043.37
2018-12-05T01:10:12.390Z,1043.35
2018-12-05T01:11:12.375Z,1043.38
2018-12-05T01:12:12.359Z,1043.38
2018-12-05T01:13:12.342Z,1043.4
2018-12-05T01:14:12.326Z,1043.38
2018-12-05T01:15:12.311Z,1043.44
2018-12-05T01:16:12.295Z,1043.48
2018-12-05T01:17:12.278Z,1043.5
2018-12-05T01:18:12.263Z,1043.47
2018-12-05T01:19:12.247Z,1043.48
2018-12-05T01:20:12.229Z,1043.51
2018-12-05T01:21:12.214Z,1043.52
2018-12-05T01:22:12.199Z,1043.53
2018-12-05T01:23:12.183Z,1043.52
2018-12-05T01:24:12.166Z,1043.54
2018-12-05T01:25:12.150Z,1043.55
2018-12-05T01:26:12.134Z,1043.53
2018-12-05T01:27:12.118Z,1043.57
2018-12-05T01:28:12.102Z,1043.52
2018-12-05T01:29:12.086Z,1043.58
2018-12-05T01:30:12.070Z,1043.6
2018-12-05T01:31:12.059Z,1043.58
2018-12-05T01:32:12.038Z,1043.61
2018-12-05T01:33:12.022Z,1043.63
2018-12-05T01:34:12.006Z,1043.65
2018-12-05T01:35:11.990Z,1043.69
2018-12-05T01:36:11.975Z,1043.65
2018-12-05T01:37:11.959Z,1043.63
2018-12-05T01:38:11.942Z,1043.66
2018-12-05T01:39:11.934Z,1043.66
2018-12-05T01:40:11.910Z,1043.65
2018-12-05T01:41:11.895Z,1043.71
2018-12-05T01:42:11.878Z,1043.69
2018-12-05T01:43:11.862Z,1043.68
2018-12-05T01:44:11.847Z,1043.64
2018-12-05T01:45:11.829Z,1043.69
2018-12-05T01:46:11.814Z,1043.69
2018-12-05T01:47:11.799Z,1043.67
2018-12-05T01:48:11.781Z,1043.68
2018-12-05T01:49:11.765Z,1043.69
2018-12-05T01:50:11.754Z,1043.7
2018-12-05T01:51:11.733Z,1043.67
2018-12-05T01:52:11.718Z,1043.67
2018-12-05T01:53:11.700Z,1043.67
2018-12-05T01:54:11.684Z,1043.67
2018-12-05T01:55:11.668Z,1043.64
2018-12-05T01:56:11.652Z,1043.66
2018-12-05T01:57:11.640Z,1043.64
2018-12-05T01:58:11.625Z,1043.64
2018-12-05T01:59:11.604Z,1043.64
2018-12-05T02:00:11.595Z,1043.65
2018-12-05T02:01:11.571Z,1043.64
2018-12-05T02:02:11.556Z,1043.64
2018-12-05T02:03:11.539Z,1043.6
2018-12-05T02:04:11.523Z,1043.6
2018-12-05T02:05:11.507Z,1043.59
2018-12-05T02:06:11.491Z,1043.6
2018-12-05T02:07:11.474Z,1043.6
2018-12-05T02:08:11.458Z,1043.61
2018-12-05T02:09:11.443Z,1043.68
2018-12-05T02:10:11.426Z,1043.66
2018-12-05T02:11:11.409Z,1043.68
2018-12-05T02:12:11.393Z,1043.67
2018-12-05T02:13:11.377Z,1043.68
2018-12-05T02:14:11.364Z,1043.68
2018-12-05T02:15:11.344Z,1043.7
2018-12-05T02:16:11.329Z,1043.68
2018-12-05T02:17:11.312Z,1043.74
2018-12-05T02:18:11.295Z,1043.76
2018-12-05T02:19:11.279Z,1043.74
2018-12-05T02:20:11.263Z,1043.73
2018-12-05T02:21:11.250Z,1043.76
2018-12-05T02:22:11.230Z,1043.73
2018-12-05T02:23:11.216Z,1043.73
2018-12-05T02:24:11.198Z,1043.71
2018-12-05T02:25:11.182Z,1043.75
2018-12-05T02:26:11.165Z,1043.73
2018-12-05T02:27:11.149Z,1043.68
2018-12-05T02:28:11.133Z,1043.71
2018-12-05T02:29:11.116Z,1043.72
2018-12-05T02:30:11.105Z,1043.78
2018-12-05T02:31:11.084Z,1043.8
2018-12-05T02:32:11.068Z,1043.85
2018-12-05T02:33:11.050Z,1043.89
2018-12-05T02:34:11.034Z,1043.9
2018-12-05T02:35:11.019Z,1043.92
2018-12-05T02:36:11.003Z,1043.94
2018-12-05T02:37:10.986Z,1043.95
2018-12-05T02:38:10.971Z,1043.95
2018-12-05T02:39:10.954Z,1043.97
2018-12-05T02:40:10.942Z,1043.98
2018-12-05T02:41:10.921Z,1043.95
2018-12-05T02:42:10.904Z,1043.99
2018-12-05T02:43:10.887Z,1044
2018-12-05T02:44:10.871Z,1044.03
2018-12-05T02:45:10.856Z,1044.03
2018-12-05T02:46:10.838Z,1044.06
2018-12-05T02:47:10.822Z,1044.06
2018-12-05T02:48:10.807Z,1044.07
2018-12-05T02:49:10.789Z,1044.11
2018-12-05T02:50:10.773Z,1044.09
2018-12-05T02:51:10.759Z,1044.12
2018-12-05T02:52:10.740Z,1044.13
2018-12-05T02:53:10.723Z,1044.16
2018-12-05T02:54:10.707Z,1044.15
2018-12-05T02:55:10.690Z,1044.12
2018-12-05T02:56:10.674Z,1044.14
2018-12-05T02:57:10.658Z,1044.18
2018-12-05T02:58:10.642Z,1044.19
2018-12-05T02:59:10.624Z,1044.2
2018-12-05T03:00:10.610Z,1044.19
2018-12-05T03:01:10.592Z,1044.21
2018-12-05T03:02:10.575Z,1044.21
2018-12-05T03:03:10.559Z,1044.24
2018-12-05T03:04:10.546Z,1044.23
2018-12-05T03:05:10.526Z,1044.22
2018-12-05T03:06:10.509Z,1044.27
2018-12-05T03:07:10.493Z,1044.29
2018-12-05T03:08:10.476Z,1044.31
2018-12-05T03:09:10.461Z,1044.27
2018-12-05T03:10:10.446Z,1044.27
2018-12-05T03:11:10.427Z,1044.29
2018-12-05T03:12:10.411Z,1044.31
2018-12-05T03:13:10.393Z,1044.29
2018-12-05T03:14:10.383Z,1044.3
2018-12-05T03:15:10.362Z,1044.3
2018-12-05T03:16:10.346Z,1044.32
2018-12-05T03:17:10.329Z,1044.28
2018-12-05T03:18:10.313Z,1044.33
2018-12-05T03:19:10.295Z,1044.33
2018-12-05T03:20:10.282Z,1044.32
2018-12-05T03:21:10.262Z,1044.33
2018-12-05T03:22:10.246Z,1044.32
2018-12-05T03:23:10.229Z,1044.35
2018-12-05T03:24:10.214Z,1044.34
2018-12-05T03:25:10.196Z,1044.34
2018-12-05T03:26:10.179Z,1044.35
2018-12-05T03:27:10.163Z,1044.36
2018-12-05T03:28:10.146Z,1044.38
2018-12-05T03:29:10.130Z,1044.37
2018-12-05T03:30:10.115Z,1044.38
2018-12-05T03:31:10.101Z,1044.34
2018-12-05T03:32:10.082Z,1044.3
2018-12-05T03:33:10.067Z,1044.3
2018-12-05T03:34:10.048Z,1044.3
2018-12-05T03:35:10.032Z,1044.33
2018-12-05T03:36:10.015Z,1044.38
2018-12-05T03:37:09.998Z,1044.39
2018-12-05T03:38:09.982Z,1044.38
2018-12-05T03:39:09.966Z,1044.41
2018-12-05T03:40:09.949Z,1044.34
2018-12-05T03:41:09.932Z,1044.37
2018-12-05T03:42:09.915Z,1044.45
2018-12-05T03:43:09.900Z,1044.4
2018-12-05T03:44:09.883Z,1044.4
2018-12-05T03:45:09.866Z,1044.36
2018-12-05T03:46:09.850Z,1044.45
2018-12-05T03:47:09.833Z,1044.44
2018-12-05T03:48:09.817Z,1044.47
2018-12-05T03:49:09.802Z,1044.46
2018-12-05T03:50:09.783Z,1044.45
2018-12-05T03:51:09.767Z,1044.51
2018-12-05T03:52:09.751Z,1044.48
2018-12-05T03:53:09.734Z,1044.53
2018-12-05T03:54:09.717Z,1044.55
2018-12-05T03:55:09.706Z,1044.58
2018-12-05T03:56:09.685Z,1044.56
2018-12-05T03:57:09.668Z,1044.61
2018-12-05T03:58:09.654Z,1044.6
2018-12-05T03:59:09.636Z,1044.62
2018-12-05T04:00:09.619Z,1044.62
2018-12-05T04:01:09.602Z,1044.62
2018-12-05T04:02:09.586Z,1044.58
2018-12-05T04:03:09.569Z,1044.56
2018-12-05T04:04:09.552Z,1044.55
2018-12-05T04:05:09.536Z,1044.59
2018-12-05T04:06:09.522Z,1044.52
2018-12-05T04:07:09.503Z,1044.58
2018-12-05T04:08:09.494Z,1044.53
2018-12-05T04:09:09.471Z,1044.53
2018-12-05T04:10:09.456Z,1044.49
2018-12-05T04:11:09.430Z,1044.5
2018-12-05T04:12:09.413Z,1044.52
2018-12-05T04:13:09.397Z,1044.55
2018-12-05T04:14:09.381Z,1044.54
2018-12-05T04:15:09.364Z,1044.54
2018-12-05T04:16:09.346Z,1044.52
2018-12-05T04:17:09.330Z,1044.54
2018-12-05T04:18:09.316Z,1044.53
2018-12-05T04:19:09.297Z,1044.55
2018-12-05T04:20:09.281Z,1044.57
2018-12-05T04:21:09.264Z,1044.61
2018-12-05T04:22:09.249Z,1044.6
2018-12-05T04:23:09.233Z,1044.59
2018-12-05T04:24:09.217Z,1044.63
2018-12-05T04:25:09.200Z,1044.62
2018-12-05T04:26:09.181Z,1044.65
2018-12-05T04:27:09.165Z,1044.64
2018-12-05T04:28:09.148Z,1044.63
2018-12-05T04:29:09.132Z,1044.66
2018-12-05T04:30:09.117Z,1044.67
2018-12-05T04:31:09.100Z,1044.65
2018-12-05T04:32:09.083Z,1044.69
2018-12-05T04:33:09.068Z,1044.69
2018-12-05T04:34:09.051Z,1044.64
2018-12-05T04:35:09.038Z,1044.67
2018-12-05T04:36:09.021Z,1044.67
2018-12-05T04:37:09.001Z,1044.7
2018-12-05T04:38:08.983Z,1044.64
2018-12-05T04:39:08.967Z,1044.68
2018-12-05T04:40:08.951Z,1044.68
2018-12-05T04:41:08.938Z,1044.68
2018-12-05T04:42:08.925Z,1044.7
2018-12-05T04:43:08.903Z,1044.68
2018-12-05T04:44:08.887Z,1044.69
2018-12-05T04:45:08.876Z,1044.68
2018-12-05T04:46:08.854Z,1044.7
2018-12-05T04:47:08.844Z,1044.72
2018-12-05T04:48:08.820Z,1044.69
2018-12-05T04:49:08.805Z,1044.72
2018-12-05T04:50:08.787Z,1044.71
2018-12-05T04:51:08.774Z,1044.76
2018-12-05T04:52:08.754Z,1044.75
2018-12-05T04:53:08.737Z,1044.73
2018-12-05T04:54:08.722Z,1044.76
2018-12-05T04:55:08.705Z,1044.78
2018-12-05T04:56:08.708Z,1044.77
2018-12-05T04:57:08.680Z,1044.79
2018-12-05T04:58:08.656Z,1044.8
2018-12-05T04:59:08.639Z,1044.84
2018-12-05T05:00:08.622Z,1044.83
2018-12-05T05:01:08.607Z,1044.84
2018-12-05T05:02:08.591Z,1044.87
2018-12-05T05:03:08.572Z,1044.88
2018-12-05T05:04:08.556Z,1044.96
2018-12-05T05:05:08.539Z,1044.95
2018-12-05T05:06:08.523Z,1044.94
2018-12-05T05:07:08.507Z,1044.93
2018-12-05T05:08:08.508Z,1044.89
2018-12-05T05:09:08.474Z,1044.92
2018-12-05T05:10:08.458Z,1044.93
2018-12-05T05:11:08.441Z,1044.95
2018-12-05T05:12:08.472Z,1044.94
2018-12-05T05:13:08.409Z,1045
2018-12-05T05:14:08.390Z,1044.97
2018-12-05T05:15:08.374Z,1044.97
2018-12-05T05:16:08.358Z,1045.04
2018-12-05T05:17:08.340Z,1045.01
2018-12-05T05:18:08.326Z,1044.99
2018-12-05T05:19:08.309Z,1044.97
2018-12-05T05:20:08.293Z,1045.03
2018-12-05T05:21:08.282Z,1045.01
2018-12-05T05:22:08.260Z,1045
2018-12-05T05:23:08.256Z,1044.98
2018-12-05T05:24:08.229Z,1045.02
2018-12-05T05:25:08.209Z,1045.03
2018-12-05T05:26:08.194Z,1045.02
2018-12-05T05:27:08.178Z,1045.03
2018-12-05T05:28:08.158Z,1045.02
2018-12-05T05:29:08.143Z,1045.04
2018-12-05T05:30:08.128Z,1045.05
2018-12-05T05:31:08.113Z,1045.05
2018-12-05T05:32:08.094Z,1045.07
2018-12-05T05:33:08.078Z,1045.05
2018-12-05T05:34:08.061Z,1045.02
2018-12-05T05:35:08.045Z,1045.02
2018-12-05T05:36:08.036Z,1045.05
2018-12-05T05:37:08.012Z,1045.05
2018-12-05T05:38:07.998Z,1045.09
2018-12-05T05:39:07.979Z,1045.11
2018-12-05T05:40:07.964Z,1045.11
2018-12-05T05:41:07.945Z,1045.16
2018-12-05T05:42:07.930Z,1045.18
2018-12-05T05:43:07.915Z,1045.16
2018-12-05T05:44:07.897Z,1045.18
2018-12-05T05:45:07.881Z,1045.19
2018-12-05T05:46:07.863Z,1045.18
2018-12-05T05:47:07.846Z,1045.19
2018-12-05T05:48:07.830Z,1045.19
2018-12-05T05:49:07.814Z,1045.24
2018-12-05T05:50:07.800Z,1045.18
2018-12-05T05:51:07.781Z,1045.21
2018-12-05T05:52:07.765Z,1045.23
2018-12-05T05:53:07.749Z,1045.2
2018-12-05T05:54:07.733Z,1045.24
2018-12-05T05:55:07.714Z,1045.25
2018-12-05T05:56:07.698Z,1045.21
2018-12-05T05:57:07.683Z,1045.22
2018-12-05T05:58:07.666Z,1045.24
2018-12-05T05:59:07.650Z,1045.27
2018-12-05T06:00:07.633Z,1045.29
2018-12-05T06:01:07.617Z,1045.3
2018-12-05T06:02:07.603Z,1045.28
2018-12-05T06:03:07.585Z,1045.24
2018-12-05T06:04:07.568Z,1045.27
2018-12-05T06:05:07.551Z,1045.29
2018-12-05T06:06:07.533Z,1045.23
2018-12-05T06:07:07.518Z,1045.26
2018-12-05T06:08:07.505Z,1045.31
2018-12-05T06:09:07.484Z,1045.34
2018-12-05T06:10:07.470Z,1045.34
2018-12-05T06:11:07.455Z,1045.32
2018-12-05T06:12:07.435Z,1045.35
2018-12-05T06:13:07.419Z,1045.38
2018-12-05T06:14:07.403Z,1045.4
2018-12-05T06:15:07.387Z,1045.36
2018-12-05T06:16:07.370Z,1045.39
2018-12-05T06:17:07.356Z,1045.39
2018-12-05T06:18:07.337Z,1045.44
2018-12-05T06:19:07.321Z,1045.45
2018-12-05T06:20:07.304Z,1045.45
2018-12-05T06:21:07.288Z,1045.49
2018-12-05T06:22:07.272Z,1045.51
2018-12-05T06:23:07.259Z,1045.51
2018-12-05T06:24:07.241Z,1045.48
2018-12-05T06:25:07.230Z,1045.51
2018-12-05T06:26:07.210Z,1045.51
2018-12-05T06:27:07.189Z,1045.52
2018-12-05T06:28:07.173Z,1045.48
2018-12-05T06:29:07.157Z,1045.49
2018-12-05T06:30:07.138Z,1045.5
2018-12-05T06:31:07.122Z,1045.49
2018-12-05T06:32:07.105Z,1045.5
2018-12-05T06:33:07.163Z,1045.51
2018-12-05T06:34:07.074Z,1045.52
2018-12-05T06:35:07.057Z,1045.54
2018-12-05T06:36:07.041Z,1045.59
2018-12-05T06:37:07.025Z,1045.54
2018-12-05T06:38:07.006Z,1045.54
2018-12-05T06:39:06.991Z,1045.6
2018-12-05T06:40:06.975Z,1045.62
2018-12-05T06:41:06.958Z,1045.65
2018-12-05T06:42:06.939Z,1045.68
2018-12-05T06:43:06.923Z,1045.73
2018-12-05T06:44:06.907Z,1045.75
2018-12-05T06:45:06.890Z,1045.73
2018-12-05T06:46:06.877Z,1045.78
2018-12-05T06:47:06.861Z,1045.75
2018-12-05T06:48:06.841Z,1045.75
2018-12-05T06:49:06.824Z,1045.75
2018-12-05T06:50:06.807Z,1045.73
2018-12-05T06:51:06.799Z,1045.79
2018-12-05T06:52:06.775Z,1045.81
2018-12-05T06:53:06.758Z,1045.78
2018-12-05T06:54:06.740Z,1045.81
2018-12-05T06:55:06.724Z,1045.83
2018-12-05T06:56:06.706Z,1045.83
2018-12-05T06:57:06.690Z,1045.82
2018-12-05T06:58:06.675Z,1045.8
2018-12-05T06:59:06.659Z,1045.83
2018-12-05T07:00:08.132Z,1045.8
2018-12-05T07:01:06.624Z,1045.82
2018-12-05T07:02:06.607Z,1045.83
2018-12-05T07:03:06.590Z,1045.8
2018-12-05T07:04:06.575Z,1045.78
2018-12-05T07:05:06.808Z,1045.81
2018-12-05T07:06:06.542Z,1045.78
2018-12-05T07:07:06.523Z,1045.77
2018-12-05T07:08:06.507Z,1045.74
2018-12-05T07:09:06.493Z,1045.7
2018-12-05T07:10:06.475Z,1045.7
2018-12-05T07:11:06.459Z,1045.67
2018-12-05T07:12:06.444Z,1045.7
2018-12-05T07:13:06.428Z,1045.69
2018-12-05T07:14:06.406Z,1045.71
2018-12-05T07:15:06.391Z,1045.72
2018-12-05T07:16:06.373Z,1045.74
2018-12-05T07:17:06.361Z,1045.74
2018-12-05T07:18:06.340Z,1045.75
2018-12-05T07:19:06.324Z,1045.8
2018-12-05T07:20:06.308Z,1045.76
2018-12-05T07:21:06.291Z,1045.78
2018-12-05T07:22:06.275Z,1045.75
2018-12-05T07:23:06.260Z,1045.76
2018-12-05T07:24:06.243Z,1045.77
2018-12-05T07:25:06.226Z,1045.79
2018-12-05T07:26:06.208Z,1045.81
2018-12-05T07:27:06.192Z,1045.81
2018-12-05T07:28:06.175Z,1045.78
2018-12-05T07:29:06.158Z,1045.77
2018-12-05T07:30:06.143Z,1045.74
2018-12-05T07:31:06.126Z,1045.71
2018-12-05T07:32:06.111Z,1045.74
2018-12-05T07:33:06.094Z,1045.76
2018-12-05T07:34:06.077Z,1045.73
2018-12-05T07:35:06.061Z,1045.72
2018-12-05T07:36:06.043Z,1045.75
2018-12-05T07:37:06.027Z,1045.71
2018-12-05T07:38:06.013Z,1045.71
2018-12-05T07:39:05.997Z,1045.7
2018-12-05T07:40:05.980Z,1045.69
2018-12-05T07:41:05.964Z,1045.67
2018-12-05T07:42:05.947Z,1045.68
2018-12-05T07:43:05.932Z,1045.67
2018-12-05T07:44:05.915Z,1045.66
2018-12-05T07:45:05.899Z,1045.67
2018-12-05T07:46:05.882Z,1045.62
2018-12-05T07:47:05.865Z,1045.63
2018-12-05T07:48:05.850Z,1045.6
2018-12-05T07:49:05.839Z,1045.52
2018-12-05T07:50:05.819Z,1045.56
2018-12-05T07:51:05.803Z,1045.58
2018-12-05T07:52:05.788Z,1045.51
2018-12-05T07:53:05.770Z,1045.52
2018-12-05T07:54:05.754Z,1045.49
2018-12-05T07:55:05.738Z,1045.5
2018-12-05T07:56:05.723Z,1045.48
2018-12-05T07:57:05.708Z,1045.44
2018-12-05T07:58:05.689Z,1045.45
2018-12-05T07:59:05.676Z,1045.45
2018-12-05T08:00:05.659Z,1045.44
2018-12-05T08:01:05.643Z,1045.43
2018-12-05T08:02:05.627Z,1045.44
2018-12-05T08:03:05.612Z,1045.44
2018-12-05T08:04:05.596Z,1045.39
2018-12-05T08:05:05.581Z,1045.37
2018-12-05T08:06:05.566Z,1045.4
2018-12-05T08:07:05.547Z,1045.36
2018-12-05T08:08:05.536Z,1045.33
2018-12-05T08:09:05.517Z,1045.36
2018-12-05T08:10:05.500Z,1045.37
2018-12-05T08:11:05.484Z,1045.35
2018-12-05T08:12:05.469Z,1045.33
2018-12-05T08:13:05.452Z,1045.33
2018-12-05T08:14:06.590Z,1045.33
2018-12-05T08:15:05.421Z,1045.3
2018-12-05T08:16:05.406Z,1045.28
2018-12-05T08:17:05.392Z,1045.26
2018-12-05T08:18:05.374Z,1045.22
2018-12-05T08:19:05.358Z,1045.21
2018-12-05T08:20:05.342Z,1045.2
2018-12-05T08:21:05.328Z,1045.22
2018-12-05T08:22:05.311Z,1045.21
2018-12-05T08:23:05.299Z,1045.19
2018-12-05T08:24:05.280Z,1045.17
2018-12-05T08:25:05.266Z,1045.17
2018-12-05T08:26:05.250Z,1045.15
2018-12-05T08:27:05.235Z,1045.18
2018-12-05T08:28:05.229Z,1045.14
2018-12-05T08:29:05.202Z,1045.13
2018-12-05T08:30:05.188Z,1045.14
2018-12-05T08:31:05.171Z,1045.06
2018-12-05T08:32:05.498Z,1045.07
2018-12-05T08:33:05.144Z,1045.07
2018-12-05T08:34:05.126Z,1045.04
2018-12-05T08:35:05.110Z,1045.13
2018-12-05T08:36:05.095Z,1045.12
2018-12-05T08:37:05.082Z,1045.1
2018-12-05T08:38:05.065Z,1045.08
2018-12-05T08:39:05.050Z,1045.1
2018-12-05T08:40:05.033Z,1045.1
2018-12-05T08:41:05.020Z,1045.09
2018-12-05T08:42:05.002Z,1045.06
2018-12-05T08:43:04.989Z,1045.05
2018-12-05T08:44:04.973Z,1045
2018-12-05T08:45:04.957Z,1045
2018-12-05T08:46:04.941Z,1044.95
2018-12-05T08:47:04.927Z,1044.97
2018-12-05T08:48:04.912Z,1044.98
2018-12-05T08:49:04.896Z,1044.99
2018-12-05T08:50:04.890Z,1044.97
2018-12-05T08:51:04.868Z,1044.94
2018-12-05T08:52:04.852Z,1044.91
2018-12-05T08:53:04.840Z,1044.94
2018-12-05T08:54:04.821Z,1044.95
2018-12-05T08:55:04.806Z,1044.92
2018-12-05T08:56:04.795Z,1044.95
2018-12-05T08:57:04.775Z,1044.92
2018-12-05T08:58:04.762Z,1044.92
2018-12-05T08:59:04.746Z,1044.94
2018-12-05T09:00:04.730Z,1044.95
2018-12-05T09:01:04.718Z,1044.86
2018-12-05T09:02:04.702Z,1044.9
2018-12-05T09:03:04.687Z,1044.85
2018-12-05T09:04:04.672Z,1044.83
2018-12-05T09:05:04.657Z,1044.8
2018-12-05T09:06:04.641Z,1044.78
2018-12-05T09:07:04.627Z,1044.73
2018-12-05T09:08:04.611Z,1044.73
2018-12-05T09:09:04.597Z,1044.7
2018-12-05T09:10:04.582Z,1044.72
2018-12-05T09:11:04.568Z,1044.74
2018-12-05T09:12:04.554Z,1044.72
2018-12-05T09:13:04.539Z,1044.7
2018-12-05T09:14:04.523Z,1044.73
2018-12-05T09:15:04.507Z,1044.76
2018-12-05T09:16:04.493Z,1044.72
2018-12-05T09:17:04.478Z,1044.68
2018-12-05T09:18:04.466Z,1044.69
2018-12-05T09:19:04.449Z,1044.68
2018-12-05T09:20:04.435Z,1044.69
2018-12-05T09:21:04.422Z,1044.71
2018-12-05T09:22:04.404Z,1044.74
2018-12-05T09:23:04.390Z,1044.73
2018-12-05T09:24:04.376Z,1044.74
2018-12-05T09:25:04.365Z,1044.75
2018-12-05T09:26:04.346Z,1044.76
2018-12-05T09:27:04.333Z,1044.71
2018-12-05T09:28:04.316Z,1044.69
2018-12-05T09:29:04.303Z,1044.65
2018-12-05T09:30:04.289Z,1044.65
2018-12-05T09:31:04.275Z,1044.69
2018-12-05T09:32:04.260Z,1044.65
2018-12-05T09:33:04.246Z,1044.69
2018-12-05T09:34:04.230Z,1044.65
2018-12-05T09:35:04.216Z,1044.66
2018-12-05T09:36:04.201Z,1044.62
2018-12-05T09:37:04.187Z,1044.61
2018-12-05T09:38:04.172Z,1044.57
2018-12-05T09:39:04.158Z,1044.57
2018-12-05T09:40:04.142Z,1044.54
2018-12-05T09:41:04.128Z,1044.51
2018-12-05T09:42:04.115Z,1044.53
2018-12-05T09:43:04.101Z,1044.47
2018-12-05T09:44:04.087Z,1044.43
2018-12-05T09:45:04.073Z,1044.47
2018-12-05T09:46:04.056Z,1044.41
2018-12-05T09:47:04.042Z,1044.43
2018-12-05T09:48:04.027Z,1044.42
2018-12-05T09:49:04.015Z,1044.44
2018-12-05T09:50:04.000Z,1044.41
2018-12-05T09:51:03.983Z,1044.4
2018-12-05T09:52:03.969Z,1044.39
2018-12-05T09:53:03.955Z,1044.41
2018-12-05T09:54:03.943Z,1044.42
2018-12-05T09:55:03.927Z,1044.39
2018-12-05T09:56:03.913Z,1044.44
2018-12-05T09:57:03.900Z,1044.42
2018-12-05T09:58:03.884Z,1044.43
2018-12-05T09:59:03.869Z,1044.39
2018-12-05T10:00:03.856Z,1044.37
2018-12-05T10:01:03.841Z,1044.3
2018-12-05T10:02:03.826Z,1044.3
2018-12-05T10:03:03.817Z,1044.26
2018-12-05T10:04:03.798Z,1044.23
2018-12-05T10:05:03.784Z,1044.22
2018-12-05T10:06:03.770Z,1044.21
2018-12-05T10:07:03.757Z,1044.22
2018-12-05T10:08:03.743Z,1044.21
2018-12-05T10:09:03.732Z,1044.24
2018-12-05T10:10:03.713Z,1044.25
2018-12-05T10:11:03.701Z,1044.24
2018-12-05T10:12:03.685Z,1044.2
2018-12-05T10:13:03.671Z,1044.21
2018-12-05T10:14:03.658Z,1044.19
2018-12-05T10:15:03.651Z,1044.16
2018-12-05T10:16:03.629Z,1044.16
2018-12-05T10:17:03.616Z,1044.16
2018-12-05T10:18:03.606Z,1044.13
2018-12-05T10:19:03.590Z,1044.13
2018-12-05T10:20:03.575Z,1044.12
2018-12-05T10:21:03.561Z,1044.09
2018-12-05T10:22:03.545Z,1044.1
2018-12-05T10:23:03.533Z,1044.06
2018-12-05T10:24:03.518Z,1044.08
2018-12-05T10:25:03.504Z,1044.01
2018-12-05T10:26:03.493Z,1043.97
2018-12-05T10:27:03.478Z,1043.97
2018-12-05T10:28:03.462Z,1043.89
2018-12-05T10:29:03.448Z,1043.88
2018-12-05T10:30:03.436Z,1043.86
2018-12-05T10:31:03.423Z,1043.85
2018-12-05T10:32:05.022Z,1043.84
2018-12-05T10:33:03.395Z,1043.81
2018-12-05T10:34:03.382Z,1043.79
2018-12-05T10:35:03.367Z,1043.74
2018-12-05T10:36:03.353Z,1043.71
2018-12-05T10:37:03.339Z,1043.72
2018-12-05T10:38:03.326Z,1043.73
2018-12-05T10:39:03.313Z,1043.7
2018-12-05T10:40:03.298Z,1043.7
2018-12-05T10:41:03.285Z,1043.65
2018-12-05T10:42:03.279Z,1043.66
2018-12-05T10:43:03.257Z,1043.64
2018-12-05T10:44:03.245Z,1043.64
2018-12-05T10:45:03.232Z,1043.69
2018-12-05T10:46:03.216Z,1043.61
2018-12-05T10:47:03.203Z,1043.62
2018-12-05T10:48:03.190Z,1043.59
2018-12-05T10:49:03.177Z,1043.58
2018-12-05T10:50:03.163Z,1043.56
2018-12-05T10:51:03.150Z,1043.54
2018-12-05T10:52:03.136Z,1043.55
2018-12-05T10:53:03.124Z,1043.48
2018-12-05T10:54:03.109Z,1043.48
2018-12-05T10:55:03.095Z,1043.45
2018-12-05T10:56:03.082Z,1043.43
2018-12-05T10:57:03.069Z,1043.44
2018-12-05T10:58:03.057Z,1043.45
2018-12-05T10:59:03.043Z,1043.45
2018-12-05T11:00:03.034Z,1043.39
2018-12-05T11:01:03.017Z,1043.4
2018-12-05T11:02:03.002Z,1043.36
2018-12-05T11:03:02.989Z,1043.36
2018-12-05T11:04:02.976Z,1043.35
2018-12-05T11:05:02.964Z,1043.35
2018-12-05T11:06:02.951Z,1043.32
2018-12-05T11:07:02.938Z,1043.35
2018-12-05T11:08:02.928Z,1043.31
2018-12-05T11:09:02.910Z,1043.32
2018-12-05T11:10:02.897Z,1043.31
2018-12-05T11:11:02.885Z,1043.28
2018-12-05T11:12:02.872Z,1043.32
2018-12-05T11:13:02.857Z,1043.29
2018-12-05T11:14:02.844Z,1043.29
2018-12-05T11:15:02.830Z,1043.28
2018-12-05T11:16:02.819Z,1043.21
2018-12-05T11:17:02.805Z,1043.19
2018-12-05T11:18:02.793Z,1043.2
2018-12-05T11:19:02.779Z,1043.2
2018-12-05T11:20:02.766Z,1043.19
2018-12-05T11:21:02.752Z,1043.19
2018-12-05T11:22:02.744Z,1043.15
2018-12-05T11:23:02.726Z,1043.12
2018-12-05T11:24:02.714Z,1043.09
2018-12-05T11:25:02.700Z,1043.06
2018-12-05T11:26:02.688Z,1043.06
2018-12-05T11:27:02.674Z,1043.04
2018-12-05T11:28:02.661Z,1043.01
2018-12-05T11:29:02.648Z,1043.03
2018-12-05T11:30:02.637Z,1042.99
2018-12-05T11:31:02.623Z,1042.97
2018-12-05T11:32:02.610Z,1042.98
2018-12-05T11:33:02.597Z,1042.95
2018-12-05T11:34:02.583Z,1042.9
2018-12-05T11:35:02.570Z,1042.92
2018-12-05T11:36:02.559Z,1042.94
2018-12-05T11:37:02.545Z,1042.91
2018-12-05T11:38:02.531Z,1042.92
2018-12-05T11:39:02.519Z,1042.94
2018-12-05T11:40:02.506Z,1042.95
2018-12-05T11:41:02.492Z,1042.93
2018-12-05T11:42:02.482Z,1042.92
2018-12-05T11:43:02.468Z,1042.93
2018-12-05T11:44:02.454Z,1042.95
2018-12-05T11:45:02.442Z,1042.95
2018-12-05T11:46:02.430Z,1042.94
2018-12-05T11:47:02.419Z,1042.98
2018-12-05T11:48:02.406Z,1042.97
2018-12-05T11:49:02.391Z,1042.96
2018-12-05T11:50:02.378Z,1042.95
2018-12-05T11:51:02.365Z,1042.94
2018-12-05T11:52:02.352Z,1042.92
2018-12-05T11:53:02.339Z,1042.88
2018-12-05T11:54:02.326Z,1042.92
2018-12-05T11:55:02.315Z,1042.9
2018-12-05T11:56:02.301Z,1042.92
2018-12-05T11:57:02.289Z,1042.91
2018-12-05T11:58:02.275Z,1042.84
2018-12-05T11:59:02.263Z,1042.88
2018-12-05T12:00:02.260Z,1042.84
2018-12-05T12:01:02.238Z,1042.82
2018-12-05T12:02:02.224Z,1042.82
2018-12-05T12:03:02.212Z,1042.8
2018-12-05T12:04:02.203Z,1042.76
2018-12-05T12:05:02.186Z,1042.72
2018-12-05T12:06:02.176Z,1042.71
2018-12-05T12:07:02.162Z,1042.72
2018-12-05T12:08:02.149Z,1042.69